Newquay, United Kingdom

2:40 PM BST on July 29, 2016 (GMT +0100)
Newquay | | Change Station

Elev 119 ft 50.42 °N, 5.05 °W | Updated 10 minutes ago

Mostly Cloudy
Mostly Cloudy
67.1 °F
Feels Like 67.1 °F
N
6.0
Wind Variable Wind from WNW
Gusts 11.0 mph

Today
High -- | Low -- °F
--% Chance of Precip.
Yesterday
High -- | Low -- °F
Precip. -- in
Pressure 29.92 in
Visibility 6.2 miles
Clouds Few 1200 ft
Mostly Cloudy 3000 ft
Dew Point 60 °F
Humidity 79%
Rainfall 0.04 in
Snow Depth Not available.
5:44 AM 9:07 PM
Waning Crescent, 22% visible
METAR EGDR 291250Z 25008KT 9999 VCSH FEW012 BKN030 16/14 Q1013 BLU TEMPO 3000 -DZ RA SCT005 YLO1
Pressure 29.92 in
Visibility 6.2 miles
Clouds Few 1200 ft
Mostly Cloudy 3000 ft
Dew Point 60 °F
Humidity 79%
Rainfall 0.04 in
Snow Depth Not available.
5:44 AM 9:07 PM
Waning Crescent, 22% visible
METAR EGDR 291250Z 25008KT 9999 VCSH FEW012 BKN030 16/14 Q1013 BLU TEMPO 3000 -DZ RA SCT005 YLO1

10-Day Weather Forecast

×

Almanac

Astronomy

Jul. 29, 2016 Rise Set
Actual Time
Civil Twilight
Nautical Twilight
Astronomical Twilight
Moon
Length of Visible Light
Length of Day
Tomorrow will be .
, % of the Moon is Illuminated

Today's Extremes

Country Highs Country Lows

Community

WunderPhotos

Upload Photos

1,928,340 photos uploaded!

WunderBlog® & News

Nearby

Air Quality

  Air Quality AQ Index Pollutant
Not available.

Snow Depth

Station Depth Elevation

Earthquake Activity

City Distance Mag. Time & Date
Minimum magnitude displayed is 2.5.

Coastal Water Temperatures

Place Temperature

Stations

Nearby Weather Stations

Station Location Temp. Windchill Dew Point Humidity Wind Precip. Elev Updated Type